AAL0818 KDCA-KJFK
Flight info
| Callsign | AAL0818 |
|---|---|
| Flight time | N/A |
| Altitude | 9000 |
| Route | DOCTR5 AGARD T287 SPEAK/N0380F170 T287 DONIL T315 PANZE V44 CAMRN |
| Aircraft | A320/M-SDE3FGHIRWY/LB1 |
Departure
| Time | 2026-05-08 01:48 |
|---|---|
| Airport | Ronald Reagan Washington National Airport (KDCA) |
Arrival
| Time | N/A |
|---|---|
| Airport | John F. Kennedy International Airport (KJFK) |
| Time | Latitude | Longitude | Altitude | Speed | Heading |
|---|---|---|---|---|---|
| 2026-05-08 01:22 | 38.85690 | -77.04165 | 21 ft | 0 kts | 221° |
| 2026-05-08 01:35 | 38.85691 | -77.04164 | 22 ft | 1 kts | 222° |
| 2026-05-08 01:36 | 38.85703 | -77.04157 | 21 ft | 2 kts | 184° |
| 2026-05-08 01:36 | 38.85704 | -77.04157 | 21 ft | 2 kts | 180° |
| 2026-05-08 01:36 | 38.85719 | -77.04162 | 21 ft | 2 kts | 143° |
| 2026-05-08 01:36 | 38.85729 | -77.04179 | 21 ft | 2 kts | 104° |
| 2026-05-08 01:37 | 38.85728 | -77.04199 | 21 ft | 2 kts | 66° |
| 2026-05-08 01:37 | 38.85725 | -77.04210 | 22 ft | 0 kts | 70° |
| 2026-05-08 01:37 | 38.85725 | -77.04211 | 22 ft | 0 kts | 71° |
| 2026-05-08 01:40 | 38.85725 | -77.04210 | 22 ft | 0 kts | 70° |
| 2026-05-08 01:40 | 38.85729 | -77.04195 | 21 ft | 2 kts | 64° |
| 2026-05-08 01:41 | 38.85749 | -77.04165 | 21 ft | 7 kts | 52° |
| 2026-05-08 01:41 | 38.85758 | -77.04128 | 20 ft | 0 kts | 85° |
| 2026-05-08 01:42 | 38.85759 | -77.04116 | 20 ft | 4 kts | 81° |
| 2026-05-08 01:42 | 38.85775 | -77.04076 | 20 ft | 6 kts | 40° |
| 2026-05-08 01:42 | 38.85828 | -77.04062 | 19 ft | 9 kts | 357° |
| 2026-05-08 01:42 | 38.85889 | -77.04065 | 18 ft | 6 kts | 9° |
| 2026-05-08 01:43 | 38.85928 | -77.04018 | 17 ft | 9 kts | 68° |
| 2026-05-08 01:43 | 38.85958 | -77.03976 | 15 ft | 0 kts | 25° |
| 2026-05-08 01:44 | 38.85967 | -77.03970 | 15 ft | 5 kts | 24° |
| 2026-05-08 01:44 | 38.85994 | -77.03957 | 15 ft | 0 kts | 19° |
| 2026-05-08 01:46 | 38.85995 | -77.03957 | 15 ft | 0 kts | 19° |
| 2026-05-08 01:47 | 38.86019 | -77.03947 | 15 ft | 7 kts | 16° |
| 2026-05-08 01:47 | 38.86073 | -77.03913 | 14 ft | 6 kts | 62° |
| 2026-05-08 01:47 | 38.86048 | -77.03871 | 15 ft | 7 kts | 158° |
| 2026-05-08 01:48 | 38.85554 | -77.03819 | 19 ft | 103 kts | 175° |
| 2026-05-08 01:48 | 38.84605 | -77.03713 | 57 ft | 165 kts | 175° |
| 2026-05-08 01:48 | 38.83416 | -77.03586 | 766 ft | 172 kts | 175° |
| 2026-05-08 01:48 | 38.82282 | -77.03374 | 1834 ft | 165 kts | 173° |
| 2026-05-08 01:49 | 38.81147 | -77.03129 | 2487 ft | 173 kts | 173° |
| 2026-05-08 01:49 | 38.79898 | -77.02858 | 3000 ft | 190 kts | 173° |
| 2026-05-08 01:49 | 38.78514 | -77.02561 | 3442 ft | 214 kts | 173° |
| 2026-05-08 01:49 | 38.76971 | -77.02095 | 4006 ft | 236 kts | 158° |
| 2026-05-08 01:50 | 38.75623 | -77.00599 | 4609 ft | 264 kts | 124° |
| 2026-05-08 01:50 | 38.75114 | -76.98220 | 5444 ft | 279 kts | 94° |
| 2026-05-08 01:50 | 38.75108 | -76.95697 | 6393 ft | 283 kts | 92° |
| 2026-05-08 01:50 | 38.75272 | -76.93112 | 7247 ft | 293 kts | 75° |
| 2026-05-08 01:51 | 38.76300 | -76.90791 | 8110 ft | 300 kts | 43° |
| 2026-05-08 01:51 | 38.78021 | -76.89216 | 9008 ft | 302 kts | 29° |
| 2026-05-08 01:51 | 38.79940 | -76.87818 | 9857 ft | 307 kts | 27° |
| 2026-05-08 01:51 | 38.81893 | -76.86403 | 10595 ft | 317 kts | 28° |
| 2026-05-08 01:52 | 38.83895 | -76.84905 | 11071 ft | 334 kts | 28° |
| 2026-05-08 01:52 | 38.85851 | -76.83070 | 11737 ft | 345 kts | 44° |
| 2026-05-08 01:52 | 38.87349 | -76.80572 | 12539 ft | 349 kts | 61° |
| 2026-05-08 01:52 | 38.88484 | -76.77686 | 13369 ft | 352 kts | 66° |
| 2026-05-08 01:53 | 38.89549 | -76.74695 | 14131 ft | 357 kts | 67° |
| 2026-05-08 01:53 | 38.90624 | -76.71681 | 14872 ft | 362 kts | 66° |
| 2026-05-08 01:53 | 38.91721 | -76.68684 | 15591 ft | 367 kts | 66° |
| 2026-05-08 01:53 | 38.92862 | -76.65616 | 16297 ft | 373 kts | 66° |
| 2026-05-08 01:54 | 38.94008 | -76.62551 | 16753 ft | 377 kts | 66° |
| 2026-05-08 01:54 | 38.95125 | -76.59320 | 16931 ft | 378 kts | 69° |
| 2026-05-08 01:54 | 38.96185 | -76.56092 | 16932 ft | 378 kts | 69° |
| 2026-05-08 01:54 | 38.97228 | -76.52879 | 16935 ft | 378 kts | 70° |
| 2026-05-08 01:55 | 38.98283 | -76.49625 | 16935 ft | 378 kts | 70° |
| 2026-05-08 01:55 | 38.99331 | -76.46401 | 16933 ft | 379 kts | 70° |
| 2026-05-08 01:55 | 39.00357 | -76.43092 | 16928 ft | 378 kts | 74° |
| 2026-05-08 01:55 | 39.01086 | -76.39727 | 16925 ft | 375 kts | 82° |
| 2026-05-08 01:56 | 39.01522 | -76.36221 | 16926 ft | 373 kts | 86° |
| 2026-05-08 01:56 | 39.01850 | -76.32768 | 16925 ft | 373 kts | 88° |
| 2026-05-08 01:56 | 39.02167 | -76.29282 | 16926 ft | 373 kts | 88° |
| 2026-05-08 01:56 | 39.02488 | -76.25836 | 16926 ft | 373 kts | 88° |
| 2026-05-08 01:57 | 39.02824 | -76.22333 | 16927 ft | 373 kts | 87° |
| 2026-05-08 01:57 | 39.03159 | -76.18888 | 16927 ft | 372 kts | 87° |
| 2026-05-08 01:57 | 39.03500 | -76.15407 | 16927 ft | 372 kts | 87° |
| 2026-05-08 01:57 | 39.03832 | -76.11981 | 16927 ft | 372 kts | 87° |
| 2026-05-08 01:58 | 39.04171 | -76.08484 | 16926 ft | 372 kts | 88° |
| 2026-05-08 01:58 | 39.04413 | -76.05039 | 16926 ft | 370 kts | 91° |
| 2026-05-08 01:58 | 39.04576 | -76.01577 | 16926 ft | 370 kts | 91° |
| 2026-05-08 01:58 | 39.04625 | -76.00457 | 16926 ft | 370 kts | 91° |
| 2026-05-08 01:59 | 39.05034 | -75.91170 | 16926 ft | 370 kts | 91° |
| 2026-05-08 01:59 | 39.05085 | -75.90030 | 16926 ft | 370 kts | 91° |
| 2026-05-08 01:59 | 39.05343 | -75.84328 | 16926 ft | 370 kts | 91° |
| 2026-05-08 02:00 | 39.05496 | -75.80906 | 16925 ft | 370 kts | 91° |
| 2026-05-08 02:00 | 39.05546 | -75.79775 | 16924 ft | 370 kts | 91° |
| 2026-05-08 02:00 | 39.05796 | -75.74084 | 16920 ft | 370 kts | 91° |
| 2026-05-08 02:00 | 39.05944 | -75.70652 | 16917 ft | 370 kts | 91° |
| 2026-05-08 02:01 | 39.05994 | -75.69492 | 16916 ft | 370 kts | 91° |
| 2026-05-08 02:01 | 39.06045 | -75.68326 | 16914 ft | 370 kts | 91° |
| 2026-05-08 02:01 | 39.06284 | -75.62599 | 16907 ft | 370 kts | 91° |
| 2026-05-08 02:01 | 39.06379 | -75.60325 | 16904 ft | 370 kts | 91° |
| 2026-05-08 02:03 | 39.07627 | -75.32343 | 16884 ft | 373 kts | 84° |
| 2026-05-08 02:03 | 39.08441 | -75.28983 | 16890 ft | 379 kts | 67° |
| 2026-05-08 02:04 | 39.09332 | -75.26931 | 16901 ft | 381 kts | 60° |
| 2026-05-08 02:04 | 39.10320 | -75.25002 | 16897 ft | 382 kts | 57° |
| 2026-05-08 02:04 | 39.12934 | -75.20246 | 16895 ft | 382 kts | 56° |
| 2026-05-08 02:04 | 39.14531 | -75.17316 | 16896 ft | 382 kts | 57° |
| 2026-05-08 02:05 | 39.16128 | -75.14331 | 16896 ft | 382 kts | 57° |
| 2026-05-08 02:05 | 39.17681 | -75.11390 | 16896 ft | 382 kts | 58° |
| 2026-05-08 02:05 | 39.19259 | -75.08385 | 16896 ft | 382 kts | 58° |
| 2026-05-08 02:05 | 39.20830 | -75.05382 | 16896 ft | 382 kts | 58° |
| 2026-05-08 02:06 | 39.22387 | -75.02400 | 16896 ft | 381 kts | 58° |
| 2026-05-08 02:06 | 39.23901 | -74.99499 | 16897 ft | 381 kts | 58° |
| 2026-05-08 02:06 | 39.25409 | -74.96607 | 16898 ft | 381 kts | 58° |
| 2026-05-08 02:06 | 39.26426 | -74.94656 | 16899 ft | 380 kts | 58° |
| 2026-05-08 02:07 | 39.27920 | -74.91786 | 16900 ft | 380 kts | 59° |
| 2026-05-08 02:07 | 39.29900 | -74.87978 | 16901 ft | 379 kts | 59° |
| 2026-05-08 02:07 | 39.31417 | -74.85053 | 16901 ft | 379 kts | 59° |
| 2026-05-08 02:07 | 39.32943 | -74.82110 | 16900 ft | 379 kts | 59° |
| 2026-05-08 02:08 | 39.33936 | -74.80191 | 16899 ft | 379 kts | 59° |
| 2026-05-08 02:08 | 39.34456 | -74.79187 | 16899 ft | 379 kts | 59° |